M I D A S
Marine Information and Data Acquisition System
Tripno 901 of the Zeeleeuw from 2005-05-17 07:33:26 to 2005-05-17 10:59:46
Back to CruiseResearch ActivitiesStationsMapUnderway DataData graphs

EquipmentUnitsComment
TimeDGPSUTC
LatitudeDGPSDM.mWGS84
LongitudeDGPSDM.mWGS84
HeadingGyrodeg 
SOGDGPSknotsSpeed over ground
COGDGPSdegCourse over ground
DepthEcho soundermeters200 kHz
Missing or incorrect values are displayed as -999
Navigation data collected by the RV Zeeleeuw from 2005-05-17 07:28:40 to 2005-05-17 11:10:10
Time Latitude Longitude Heading SOG COG Depth
2005-05-17 07:29:45 51°13.614 2°56.042 121 2.9 299 -999
2005-05-17 07:30:46 51°13.647 2°55.938 121 4.7 298 -999
2005-05-17 07:31:45 51°13.687 2°55.836 130.3 4.5 306 -999
2005-05-17 07:32:45 51°13.741 2°55.74 141.8 5 317 -999
2005-05-17 07:33:45 51°13.809 2°55.666 157.2 4.9 330 -999
2005-05-17 07:34:46 51°13.881 2°55.642 188.8 4.3 2 -999
2005-05-17 07:35:44 51°13.932 2°55.664 218.9 1 16 5
2005-05-17 07:36:45 51°13.95 2°55.579 310.2 4.8 296 11.7
2005-05-17 07:37:44 51°14.051 2°55.463 335.3 8.4 327 11.8
2005-05-17 07:38:44 51°14.19 2°55.358 336.7 9.7 331 12.5
2005-05-17 07:39:45 51°14.317 2°55.172 312 11 307 11.5
2005-05-17 07:40:45 51°14.409 2°54.902 297.1 11.8 294 11.4
2005-05-17 07:41:45 51°14.447 2°54.587 275.6 12.2 274 12
2005-05-17 07:42:44 51°14.405 2°54.277 252.4 12.4 252 11.2
2005-05-17 07:43:44 51°14.324 2°53.971 246.6 12.7 245 11.2
2005-05-17 07:44:45 51°14.226 2°53.665 244.1 12.9 243 11.2
2005-05-17 07:45:44 51°14.124 2°53.372 243.8 12.8 240 11.3
2005-05-17 07:46:44 51°14.021 2°53.073 244.5 13 244 11.6
2005-05-17 07:47:45 51°13.901 2°52.787 237.6 12.9 240 11.9
2005-05-17 07:48:45 51°13.778 2°52.51 238.7 12.8 235 11.8
2005-05-17 07:49:45 51°13.665 2°52.223 243.8 12.7 240 11.9
2005-05-17 07:50:45 51°13.56 2°51.924 243.6 12.8 239 12.1
2005-05-17 07:51:45 51°13.453 2°51.633 244.4 13.1 239 12.2
2005-05-17 07:52:44 51°13.347 2°51.344 244.1 13.1 241 12.2
2005-05-17 07:53:45 51°13.237 2°51.047 242.9 12.8 237 12.5
2005-05-17 07:54:44 51°13.129 2°50.761 241.9 12.8 240 12.4
2005-05-17 07:55:45 51°13.019 2°50.462 244.9 12.9 239 12.6
2005-05-17 07:56:44 51°12.91 2°50.175 243.2 12.7 242 12.6
2005-05-17 07:57:44 51°12.802 2°49.885 242 13.1 241 12.7
2005-05-17 07:58:44 51°12.69 2°49.597 241.8 12.9 235 12.7
2005-05-17 07:59:44 51°12.579 2°49.304 243.9 12.9 239 12.7
2005-05-17 08:00:44 51°12.468 2°49.008 242.6 13.2 239 12.7
2005-05-17 08:01:44 51°12.359 2°48.715 243.8 13 241 12.7
2005-05-17 08:02:45 51°12.247 2°48.406 243.8 13.3 240 12.7
2005-05-17 08:03:45 51°12.137 2°48.108 243.5 13.1 239 12.6
2005-05-17 08:04:45 51°12.023 2°47.812 242.2 13 245 12.4
2005-05-17 08:05:44 51°11.913 2°47.517 243.6 13 240 12.5
2005-05-17 08:06:45 51°11.8 2°47.217 242.6 13.1 240 12
2005-05-17 08:07:44 51°11.692 2°46.922 241.6 12.8 236 11.7
2005-05-17 08:08:45 51°11.578 2°46.618 243.1 13 235 11.6
2005-05-17 08:09:44 51°11.469 2°46.322 241.6 13.1 237 11.3
2005-05-17 08:10:44 51°11.36 2°46.019 244.5 13 240 11.1
2005-05-17 08:11:45 51°11.248 2°45.72 243.1 13.2 239 10.8
2005-05-17 08:12:45 51°11.141 2°45.419 243.5 13.2 241 10.5
2005-05-17 08:13:44 51°11.044 2°45.117 249.2 12.8 247 10.4
2005-05-17 08:14:44 51°10.96 2°44.798 253.2 13.2 246 10.6
2005-05-17 08:15:44 51°10.878 2°44.473 255.1 13.5 241 10.5
2005-05-17 08:16:44 51°10.799 2°44.144 253.3 13.3 249 10.5
2005-05-17 08:17:45 51°10.718 2°43.816 252.5 13.3 248 10.4
2005-05-17 08:18:45 51°10.636 2°43.493 253 13 249 10.4
2005-05-17 08:19:45 51°10.558 2°43.166 253.2 13 247 10.3
2005-05-17 08:20:44 51°10.478 2°42.845 251.5 13.5 249 10.3
2005-05-17 08:21:44 51°10.397 2°42.523 253.5 13 250 10.3
2005-05-17 08:22:44 51°10.316 2°42.197 252.5 13.3 246 10.3
2005-05-17 08:23:44 51°10.238 2°41.873 252.7 13.3 247 10.4
2005-05-17 08:24:44 51°10.156 2°41.546 251.3 13 250 10.4
2005-05-17 08:25:45 51°10.079 2°41.211 253.2 13.4 251 10.5
2005-05-17 08:26:45 51°10.002 2°40.888 252.5 13.1 244 10.8
2005-05-17 08:27:45 51°9.925 2°40.561 254.3 13.2 253 10.7
2005-05-17 08:28:44 51°9.855 2°40.231 252.9 13.2 253 11
2005-05-17 08:29:45 51°9.779 2°39.903 252.8 13.4 251 11.1
2005-05-17 08:30:45 51°9.706 2°39.574 253.6 13.1 253 11.2
2005-05-17 08:31:44 51°9.634 2°39.25 253.5 13.2 247 11.3
2005-05-17 08:32:44 51°9.559 2°38.924 251.4 13.1 247 11.5
2005-05-17 08:33:45 51°9.485 2°38.593 251.5 13.1 253 11.6
2005-05-17 08:34:45 51°9.41 2°38.265 253.8 13.3 252 11.8
2005-05-17 08:35:45 51°9.337 2°37.934 255.2 13.2 252 11.6
2005-05-17 08:36:45 51°9.263 2°37.601 252.7 13.2 248 11.7
2005-05-17 08:37:44 51°9.197 2°37.303 250.5 11 250 11.9
2005-05-17 08:38:44 51°9.155 2°37.096 264.3 5.4 266 12
2005-05-17 08:39:44 51°9.164 2°37.026 308.8 0.2 337 12.2
2005-05-17 08:40:45 51°9.159 2°37.026 309.9 0.5 196 12.3
2005-05-17 08:41:44 51°9.153 2°37.024 295.9 0.4 188 12
2005-05-17 08:42:45 51°9.146 2°37.022 285.7 1 194 12.1
2005-05-17 08:43:44 51°9.139 2°37.017 278 0.6 203 12.1
2005-05-17 08:44:44 51°9.133 2°37.011 280.5 0.7 208 11.9
2005-05-17 08:45:44 51°9.129 2°37.004 285 0.3 233 11.7
2005-05-17 08:46:45 51°9.123 2°36.996 285.9 0.2 274 11.9
2005-05-17 08:47:44 51°9.118 2°36.988 288.1 0.4 225 11.8
2005-05-17 08:48:44 51°9.114 2°36.981 286.9 0.3 224 11.8
2005-05-17 08:49:45 51°9.114 2°36.962 294.8 1.6 285 11.7
2005-05-17 08:50:45 51°9.138 2°36.916 329.6 2.4 322 12.2
2005-05-17 08:51:45 51°9.178 2°36.91 21 2.6 15 12.7
2005-05-17 08:52:45 51°9.222 2°36.957 38.2 3.9 37 13.1
2005-05-17 08:53:45 51°9.273 2°37.041 52.5 4.6 53 13.5
2005-05-17 08:54:44 51°9.31 2°37.128 58.8 3.5 61 13.7
2005-05-17 08:55:44 51°9.333 2°37.195 59.8 2.3 61 13.7
2005-05-17 08:56:44 51°9.347 2°37.246 61.5 2.2 72 13.5
2005-05-17 08:57:45 51°9.363 2°37.305 60.6 2.5 64 13.5
2005-05-17 08:58:44 51°9.38 2°37.371 67.4 2.8 70 13.5
2005-05-17 08:59:44 51°9.396 2°37.442 64.9 2.9 64 13.3
2005-05-17 09:00:45 51°9.415 2°37.512 61.2 2.8 71 13.2
2005-05-17 09:01:44 51°9.436 2°37.579 59.5 2.8 71 13.2
2005-05-17 09:02:44 51°9.456 2°37.643 59.5 2.7 60 13.2
2005-05-17 09:03:45 51°9.48 2°37.706 57.8 2.7 52 13.2
2005-05-17 09:04:44 51°9.503 2°37.769 59.5 2.8 62 13.1
2005-05-17 09:05:44 51°9.525 2°37.834 62.1 2.7 62 13.1
2005-05-17 09:06:45 51°9.544 2°37.9 61.3 2.7 68 13.3
2005-05-17 09:07:44 51°9.564 2°37.961 60.2 2.6 64 13.2
2005-05-17 09:08:45 51°9.583 2°38.021 60.3 2.5 60 13.3
2005-05-17 09:09:45 51°9.602 2°38.078 60.1 2.4 62 13.2
2005-05-17 09:10:45 51°9.62 2°38.133 61.6 2.3 62 13.1
2005-05-17 09:11:45 51°9.639 2°38.19 60 2.4 58 13.2
2005-05-17 09:12:44 51°9.658 2°38.249 59.6 2.6 65 13.3
2005-05-17 09:13:44 51°9.678 2°38.309 59.7 2.6 64 13.3
2005-05-17 09:14:44 51°9.699 2°38.369 59.5 2.6 54 13.3
2005-05-17 09:15:44 51°9.72 2°38.433 60.6 2.9 75 13.3
2005-05-17 09:16:44 51°9.741 2°38.493 61 2.6 63 13.1
2005-05-17 09:17:45 51°9.76 2°38.555 60.7 2.6 66 13.1
2005-05-17 09:18:45 51°9.779 2°38.617 61.9 2.6 54 13.2
2005-05-17 09:19:44 51°9.797 2°38.677 60.9 2.5 66 13.1
2005-05-17 09:20:44 51°9.815 2°38.736 59.4 2.5 61 13.1
2005-05-17 09:21:44 51°9.833 2°38.794 59.8 2.4 67 13.1
2005-05-17 09:22:45 51°9.85 2°38.852 60.8 2.4 57 13.3
2005-05-17 09:23:45 51°9.866 2°38.911 60.1 2.3 62 13
2005-05-17 09:24:45 51°9.883 2°38.985 71 3.6 75 13.2
2005-05-17 09:25:44 51°9.901 2°39.082 72.5 3.9 69 13
2005-05-17 09:26:45 51°9.921 2°39.188 72.2 3.8 72 12.7
2005-05-17 09:27:44 51°9.937 2°39.255 65.9 2.1 67 12.8
2005-05-17 09:28:45 51°9.946 2°39.298 66 1.4 88 12.6
2005-05-17 09:29:45 51°9.949 2°39.321 67.6 0.7 74 12.7
2005-05-17 09:30:45 51°9.962 2°39.359 57.1 4.2 51 12.6
2005-05-17 09:31:45 51°10.056 2°39.501 42 9 48 13
2005-05-17 09:32:45 51°10.216 2°39.613 28.5 12.3 27 13.9
2005-05-17 09:33:44 51°10.375 2°39.838 50.8 13.2 48 14
2005-05-17 09:34:44 51°10.521 2°40.095 50.7 13.2 48 14.2
2005-05-17 09:35:44 51°10.664 2°40.358 53.1 13.2 50 14
2005-05-17 09:36:45 51°10.814 2°40.615 50.5 12.9 46 13.6
2005-05-17 09:37:44 51°10.959 2°40.862 50.7 13 46 13.4
2005-05-17 09:38:46 51°11.111 2°41.121 50.6 12.9 46 13.1
2005-05-17 09:39:45 51°11.257 2°41.367 50.6 13.1 47 12.4
2005-05-17 09:40:44 51°11.404 2°41.614 50 13 45 12.2
2005-05-17 09:41:44 51°11.539 2°41.882 58 13 53 11.2
2005-05-17 09:42:44 51°11.668 2°42.163 57.5 13 52 11
2005-05-17 09:43:44 51°11.796 2°42.441 57.3 13.1 54 11.2
2005-05-17 09:44:45 51°11.918 2°42.727 60.9 13 59 10.8
2005-05-17 09:45:45 51°12.03 2°43.024 63.8 13.1 60 10.7
2005-05-17 09:46:45 51°12.134 2°43.331 67.5 13 65 11.7
2005-05-17 09:47:45 51°12.215 2°43.653 71.1 13.3 67 10.5
2005-05-17 09:48:44 51°12.296 2°43.971 70.4 13.2 68 11.1
2005-05-17 09:49:45 51°12.378 2°44.293 70.4 12.9 67 8.9
2005-05-17 09:50:44 51°12.456 2°44.61 74.5 13.1 72 9.3
2005-05-17 09:51:45 51°12.523 2°44.938 74.7 12.8 72 8.9
2005-05-17 09:52:45 51°12.603 2°45.255 70.8 12.8 69 8.7
2005-05-17 09:53:44 51°12.684 2°45.567 70.7 13 67 9.2
2005-05-17 09:54:44 51°12.779 2°45.879 66.9 12.9 64 9.9
2005-05-17 09:55:45 51°12.877 2°46.194 66 13 62 10.6
2005-05-17 09:56:45 51°12.971 2°46.502 66.7 13.1 63 10.3
2005-05-17 09:57:45 51°13.07 2°46.804 64.9 13 61 10.4
2005-05-17 09:58:44 51°13.165 2°47.107 67.6 12.9 66 9.9
2005-05-17 09:59:45 51°13.261 2°47.421 67.6 12.8 64 9.7
2005-05-17 10:00:45 51°13.355 2°47.731 68.1 13 67 9.9
2005-05-17 10:01:45 51°13.451 2°48.042 67.5 12.9 61 9.9
2005-05-17 10:02:45 51°13.553 2°48.251 41.3 7 37 9.8
2005-05-17 10:03:44 51°13.618 2°48.297 20.1 3.3 17 10.8
2005-05-17 10:04:45 51°13.662 2°48.307 14.7 2.4 11 11.1
2005-05-17 10:05:45 51°13.698 2°48.327 32 2.2 29 11.2
2005-05-17 10:06:44 51°13.725 2°48.371 55.4 2.5 64 11.4
2005-05-17 10:07:45 51°13.741 2°48.435 63.1 2.4 75 11.2
2005-05-17 10:08:45 51°13.755 2°48.489 60.4 2.3 72 11.4
2005-05-17 10:09:45 51°13.774 2°48.547 58 2.6 59 11.5
2005-05-17 10:10:45 51°13.791 2°48.605 61.9 2.4 71 10.9
2005-05-17 10:11:44 51°13.804 2°48.658 64 2 60 11.1
2005-05-17 10:12:45 51°13.816 2°48.715 65 2.3 74 11
2005-05-17 10:13:45 51°13.829 2°48.773 65.2 2.3 55 11
2005-05-17 10:14:45 51°13.845 2°48.835 64.5 2.6 74 10.8
2005-05-17 10:15:44 51°13.859 2°48.895 66 2.4 73 10.4
2005-05-17 10:16:45 51°13.874 2°48.956 65.4 2.5 74 10.5
2005-05-17 10:17:45 51°13.887 2°49.019 67 2.5 72 10.3
2005-05-17 10:18:45 51°13.901 2°49.079 65.5 2.4 66 10.1
2005-05-17 10:19:45 51°13.917 2°49.141 64.6 2.5 57 10.1
2005-05-17 10:20:43 51°13.933 2°49.198 63.9 2.5 72 10.1
2005-05-17 10:21:45 51°13.95 2°49.26 62.6 2.5 58 10.1
2005-05-17 10:22:44 51°13.969 2°49.32 62.1 2.6 63 10.1
2005-05-17 10:23:44 51°13.987 2°49.384 62.6 2.5 63 9.8
2005-05-17 10:24:45 51°14.004 2°49.447 62.7 2.5 70 10.2
2005-05-17 10:25:44 51°14.019 2°49.507 63.8 2.6 74 10
2005-05-17 10:26:45 51°14.037 2°49.57 63.9 2.4 56 9.7
2005-05-17 10:27:44 51°14.055 2°49.629 60.3 2.6 60 9.9
2005-05-17 10:28:45 51°14.075 2°49.693 62.4 2.6 65 9.8
2005-05-17 10:29:44 51°14.091 2°49.754 64.5 2.5 61 9.9
2005-05-17 10:30:44 51°14.11 2°49.816 62.9 2.7 73 9.8
2005-05-17 10:31:44 51°14.129 2°49.877 63.8 2.6 70 9.6
2005-05-17 10:32:45 51°14.147 2°49.941 63.4 2.6 74 9.8
2005-05-17 10:33:44 51°14.165 2°49.999 61.6 2.5 56 9.9
2005-05-17 10:34:45 51°14.184 2°50.059 62.9 2.6 67 10
2005-05-17 10:35:45 51°14.203 2°50.121 63.9 2.6 74 10.1
2005-05-17 10:36:44 51°14.219 2°50.183 63.9 2.6 64 9.9
2005-05-17 10:37:45 51°14.237 2°50.243 62.4 2.5 77 9.9
2005-05-17 10:38:44 51°14.253 2°50.312 73.7 3.1 66 9.9
2005-05-17 10:39:45 51°14.261 2°50.399 80 3.4 87 9.8
2005-05-17 10:40:44 51°14.261 2°50.469 83.8 2.2 105 9.8
2005-05-17 10:41:45 51°14.258 2°50.514 82.7 1.4 109 9.8
2005-05-17 10:42:45 51°14.253 2°50.541 82.6 1 124 9.5
2005-05-17 10:43:45 51°14.247 2°50.557 83.1 0.4 59 9.5
2005-05-17 10:44:45 51°14.24 2°50.57 83.7 1.2 142 9.7
2005-05-17 10:45:45 51°14.266 2°50.736 75.9 10.3 77 9.2
2005-05-17 10:46:45 51°14.32 2°51.042 76.9 12.6 72 9
2005-05-17 10:47:45 51°14.377 2°51.364 76.2 12.5 75 9
2005-05-17 10:48:45 51°14.436 2°51.691 76.1 12.9 73 9.1
2005-05-17 10:49:45 51°14.489 2°52.019 77.8 12.8 75 9.1
2005-05-17 10:50:44 51°14.536 2°52.342 79.2 13 78 9.3
2005-05-17 10:51:45 51°14.578 2°52.684 84.3 12.8 79 9.3
2005-05-17 10:52:44 51°14.59 2°53.015 96.1 13 90 8.9
2005-05-17 10:53:45 51°14.571 2°53.362 97 12.8 96 8.5
2005-05-17 10:54:45 51°14.532 2°53.698 101.4 13 100 9.8
2005-05-17 10:55:45 51°14.5 2°54.035 100.7 12.7 100 9.6
2005-05-17 10:56:43 51°14.467 2°54.362 99.6 12.7 99 9.9
2005-05-17 10:57:45 51°14.43 2°54.699 103.5 11.8 107 9.7
2005-05-17 10:58:45 51°14.375 2°54.989 113.3 11.5 115 9.7
2005-05-17 10:59:45 51°14.287 2°55.225 125.2 9.7 126 10.2
2005-05-17 11:00:45 51°14.184 2°55.381 150.2 7.5 148 10.3
2005-05-17 11:01:45 51°14.082 2°55.462 160.5 6.6 160 10.3
2005-05-17 11:02:45 51°13.98 2°55.519 160.8 6.5 159 5
2005-05-17 11:03:45 51°13.877 2°55.582 160.1 6.7 157 9.7
2005-05-17 11:04:44 51°13.787 2°55.644 155.3 5.7 151 10.2
2005-05-17 11:05:45 51°13.706 2°55.745 136.3 6.4 137 12.3
2005-05-17 11:06:44 51°13.656 2°55.866 121.1 5.7 118 8.9
2005-05-17 11:07:45 51°13.623 2°55.994 113.8 5 110 9
2005-05-17 11:08:45 51°13.601 2°56.082 115.8 2.7 114 7.7
2005-05-17 11:09:45 51°13.595 2°56.1 123.5 0.2 134 6.7